sensor_id;sensor_type;location;lat;lon;timestamp;temperature;humidity
3644;DHT22;1838;50.742;7.158;2023-08-08T00:00:48;15.40;99.90
3644;DHT22;1838;50.742;7.158;2023-08-08T00:03:13;15.40;99.90
3644;DHT22;1838;50.742;7.158;2023-08-08T00:05:39;15.30;99.90
3644;DHT22;1838;50.742;7.158;2023-08-08T00:08:05;15.20;99.90
3644;DHT22;1838;50.742;7.158;2023-08-08T00:10:31;15.20;99.90
3644;DHT22;1838;50.742;7.158;2023-08-08T00:12:56;15.20;99.90
3644;DHT22;1838;50.742;7.158;2023-08-08T00:15:22;15.10;99.90
3644;DHT22;1838;50.742;7.158;2023-08-08T00:17:48;15.10;99.90
3644;DHT22;1838;50.742;7.158;2023-08-08T00:20:13;15.10;99.90
3644;DHT22;1838;50.742;7.158;2023-08-08T00:22:39;15.10;99.90
3644;DHT22;1838;50.742;7.158;2023-08-08T00:25:04;15.10;99.90
3644;DHT22;1838;50.742;7.158;2023-08-08T00:27:30;15.00;99.90
3644;DHT22;1838;50.742;7.158;2023-08-08T00:29:55;15.00;99.90
3644;DHT22;1838;50.742;7.158;2023-08-08T00:32:21;15.00;99.90
3644;DHT22;1838;50.742;7.158;2023-08-08T00:34:46;15.00;99.90
3644;DHT22;1838;50.742;7.158;2023-08-08T00:37:12;15.00;99.90
3644;DHT22;1838;50.742;7.158;2023-08-08T00:39:37;14.90;99.90
3644;DHT22;1838;50.742;7.158;2023-08-08T00:42:04;14.90;99.90
3644;DHT22;1838;50.742;7.158;2023-08-08T00:44:30;14.90;99.90
3644;DHT22;1838;50.742;7.158;2023-08-08T00:46:55;14.90;99.90
3644;DHT22;1838;50.742;7.158;2023-08-08T00:49:21;15.00;99.90
3644;DHT22;1838;50.742;7.158;2023-08-08T00:51:47;15.00;99.90
3644;DHT22;1838;50.742;7.158;2023-08-08T00:54:13;15.00;99.90
3644;DHT22;1838;50.742;7.158;2023-08-08T00:56:39;15.00;99.90
3644;DHT22;1838;50.742;7.158;2023-08-08T00:59:04;14.90;99.90
3644;DHT22;1838;50.742;7.158;2023-08-08T01:01:31;14.90;99.90
3644;DHT22;1838;50.742;7.158;2023-08-08T01:03:56;14.90;99.90
3644;DHT22;1838;50.742;7.158;2023-08-08T01:06:44;14.80;99.90
3644;DHT22;1838;50.742;7.158;2023-08-08T01:09:37;14.80;99.90
3644;DHT22;1838;50.742;7.158;2023-08-08T01:12:06;14.80;99.90
3644;DHT22;1838;50.742;7.158;2023-08-08T01:14:34;14.80;99.90
3644;DHT22;1838;50.742;7.158;2023-08-08T01:17:00;14.70;99.90
3644;DHT22;1838;50.742;7.158;2023-08-08T01:19:29;14.70;99.90
3644;DHT22;1838;50.742;7.158;2023-08-08T01:22:00;14.70;99.90
3644;DHT22;1838;50.742;7.158;2023-08-08T01:24:27;14.60;99.90
3644;DHT22;1838;50.742;7.158;2023-08-08T01:26:56;14.60;99.90
3644;DHT22;1838;50.742;7.158;2023-08-08T01:29:21;14.70;99.90
3644;DHT22;1838;50.742;7.158;2023-08-08T01:31:47;14.60;99.90
3644;DHT22;1838;50.742;7.158;2023-08-08T01:34:13;14.70;99.90
3644;DHT22;1838;50.742;7.158;2023-08-08T01:37:07;14.70;99.90
3644;DHT22;1838;50.742;7.158;2023-08-08T01:39:30;14.60;99.90
3644;DHT22;1838;50.742;7.158;2023-08-08T01:41:59;14.70;99.90
3644;DHT22;1838;50.742;7.158;2023-08-08T01:44:26;14.70;99.90
3644;DHT22;1838;50.742;7.158;2023-08-08T01:46:54;14.70;99.90
3644;DHT22;1838;50.742;7.158;2023-08-08T01:49:20;14.70;99.90
3644;DHT22;1838;50.742;7.158;2023-08-08T01:51:45;14.50;99.90
3644;DHT22;1838;50.742;7.158;2023-08-08T01:54:11;14.60;99.90
3644;DHT22;1838;50.742;7.158;2023-08-08T01:56:36;14.60;99.90
3644;DHT22;1838;50.742;7.158;2023-08-08T01:59:02;14.50;99.90
3644;DHT22;1838;50.742;7.158;2023-08-08T02:01:27;14.50;99.90
3644;DHT22;1838;50.742;7.158;2023-08-08T02:03:53;14.50;99.90
3644;DHT22;1838;50.742;7.158;2023-08-08T02:06:18;14.40;99.90
3644;DHT22;1838;50.742;7.158;2023-08-08T02:08:45;14.30;99.90
3644;DHT22;1838;50.742;7.158;2023-08-08T02:11:10;14.40;99.90
3644;DHT22;1838;50.742;7.158;2023-08-08T02:13:36;14.30;99.90
3644;DHT22;1838;50.742;7.158;2023-08-08T02:16:01;14.30;99.90
3644;DHT22;1838;50.742;7.158;2023-08-08T02:18:27;14.30;99.90
3644;DHT22;1838;50.742;7.158;2023-08-08T02:20:52;14.20;99.90
3644;DHT22;1838;50.742;7.158;2023-08-08T02:23:18;14.30;99.90
3644;DHT22;1838;50.742;7.158;2023-08-08T02:25:44;14.30;99.90
3644;DHT22;1838;50.742;7.158;2023-08-08T02:28:09;14.30;99.90
3644;DHT22;1838;50.742;7.158;2023-08-08T02:30:35;14.20;99.90
3644;DHT22;1838;50.742;7.158;2023-08-08T02:33:00;14.20;99.90
3644;DHT22;1838;50.742;7.158;2023-08-08T02:35:26;14.20;99.90
3644;DHT22;1838;50.742;7.158;2023-08-08T02:37:52;14.10;99.90
3644;DHT22;1838;50.742;7.158;2023-08-08T02:40:17;14.10;99.90
3644;DHT22;1838;50.742;7.158;2023-08-08T02:42:43;14.00;99.90
3644;DHT22;1838;50.742;7.158;2023-08-08T02:45:08;13.90;99.90
3644;DHT22;1838;50.742;7.158;2023-08-08T02:47:34;14.00;99.90
3644;DHT22;1838;50.742;7.158;2023-08-08T02:49:59;13.90;99.90
3644;DHT22;1838;50.742;7.158;2023-08-08T02:52:25;13.90;99.90
3644;DHT22;1838;50.742;7.158;2023-08-08T02:54:50;13.90;99.90
3644;DHT22;1838;50.742;7.158;2023-08-08T02:57:16;13.90;99.90
3644;DHT22;1838;50.742;7.158;2023-08-08T02:59:42;13.90;99.90
3644;DHT22;1838;50.742;7.158;2023-08-08T03:02:08;13.90;99.90
3644;DHT22;1838;50.742;7.158;2023-08-08T03:04:33;13.90;99.90
3644;DHT22;1838;50.742;7.158;2023-08-08T03:06:59;13.90;99.90
3644;DHT22;1838;50.742;7.158;2023-08-08T03:09:27;13.90;99.90
3644;DHT22;1838;50.742;7.158;2023-08-08T03:11:53;13.80;99.90
3644;DHT22;1838;50.742;7.158;2023-08-08T03:14:18;13.90;99.90
3644;DHT22;1838;50.742;7.158;2023-08-08T03:16:44;13.90;99.90
3644;DHT22;1838;50.742;7.158;2023-08-08T03:19:10;13.90;99.90
3644;DHT22;1838;50.742;7.158;2023-08-08T03:21:35;13.80;99.90
3644;DHT22;1838;50.742;7.158;2023-08-08T03:24:01;13.90;99.90
3644;DHT22;1838;50.742;7.158;2023-08-08T03:26:26;13.90;99.90
3644;DHT22;1838;50.742;7.158;2023-08-08T03:28:52;13.90;99.90
3644;DHT22;1838;50.742;7.158;2023-08-08T03:31:19;13.80;99.90
3644;DHT22;1838;50.742;7.158;2023-08-08T03:33:45;13.80;99.90
3644;DHT22;1838;50.742;7.158;2023-08-08T03:36:10;13.80;99.90
3644;DHT22;1838;50.742;7.158;2023-08-08T03:38:36;13.80;99.90
3644;DHT22;1838;50.742;7.158;2023-08-08T03:41:03;13.80;99.90
3644;DHT22;1838;50.742;7.158;2023-08-08T03:43:29;13.70;99.90
3644;DHT22;1838;50.742;7.158;2023-08-08T03:45:54;13.80;99.90
3644;DHT22;1838;50.742;7.158;2023-08-08T03:48:20;13.80;99.90
3644;DHT22;1838;50.742;7.158;2023-08-08T03:50:45;13.70;99.90
3644;DHT22;1838;50.742;7.158;2023-08-08T03:53:12;13.70;99.90
3644;DHT22;1838;50.742;7.158;2023-08-08T03:55:37;13.70;99.90
3644;DHT22;1838;50.742;7.158;2023-08-08T03:58:03;13.70;99.90
3644;DHT22;1838;50.742;7.158;2023-08-08T04:00:29;13.70;99.90
3644;DHT22;1838;50.742;7.158;2023-08-08T04:02:54;13.80;99.90
3644;DHT22;1838;50.742;7.158;2023-08-08T04:05:20;13.80;99.90
3644;DHT22;1838;50.742;7.158;2023-08-08T04:07:45;13.70;99.90
3644;DHT22;1838;50.742;7.158;2023-08-08T04:10:11;13.80;99.90
3644;DHT22;1838;50.742;7.158;2023-08-08T04:12:36;13.80;99.90
3644;DHT22;1838;50.742;7.158;2023-08-08T04:15:02;13.80;99.90
3644;DHT22;1838;50.742;7.158;2023-08-08T04:17:27;13.90;99.90
3644;DHT22;1838;50.742;7.158;2023-08-08T04:19:53;13.90;99.90
3644;DHT22;1838;50.742;7.158;2023-08-08T04:22:18;13.90;99.90
3644;DHT22;1838;50.742;7.158;2023-08-08T04:24:44;13.80;99.90
3644;DHT22;1838;50.742;7.158;2023-08-08T04:27:09;13.80;99.90
3644;DHT22;1838;50.742;7.158;2023-08-08T04:29:36;13.80;99.90
3644;DHT22;1838;50.742;7.158;2023-08-08T04:32:01;13.80;99.90
3644;DHT22;1838;50.742;7.158;2023-08-08T04:34:27;13.80;99.90
3644;DHT22;1838;50.742;7.158;2023-08-08T04:36:52;13.80;99.90
3644;DHT22;1838;50.742;7.158;2023-08-08T04:39:18;13.90;99.90
3644;DHT22;1838;50.742;7.158;2023-08-08T04:41:43;14.00;99.90
3644;DHT22;1838;50.742;7.158;2023-08-08T04:44:09;14.00;99.90
3644;DHT22;1838;50.742;7.158;2023-08-08T04:46:34;14.20;99.90
3644;DHT22;1838;50.742;7.158;2023-08-08T04:49:00;14.40;99.90
3644;DHT22;1838;50.742;7.158;2023-08-08T04:51:25;14.50;99.90
3644;DHT22;1838;50.742;7.158;2023-08-08T04:53:51;14.60;99.90
3644;DHT22;1838;50.742;7.158;2023-08-08T04:56:16;14.70;99.90
3644;DHT22;1838;50.742;7.158;2023-08-08T04:58:42;14.80;99.90
3644;DHT22;1838;50.742;7.158;2023-08-08T05:01:07;15.00;99.90
3644;DHT22;1838;50.742;7.158;2023-08-08T05:03:37;15.30;99.90
3644;DHT22;1838;50.742;7.158;2023-08-08T05:06:02;15.50;99.90
3644;DHT22;1838;50.742;7.158;2023-08-08T05:08:28;15.70;99.90
3644;DHT22;1838;50.742;7.158;2023-08-08T05:10:54;15.90;99.90
3644;DHT22;1838;50.742;7.158;2023-08-08T05:13:19;16.30;99.90
3644;DHT22;1838;50.742;7.158;2023-08-08T05:15:45;16.50;99.90
3644;DHT22;1838;50.742;7.158;2023-08-08T05:18:10;16.80;99.90
3644;DHT22;1838;50.742;7.158;2023-08-08T05:20:36;17.00;99.90
3644;DHT22;1838;50.742;7.158;2023-08-08T05:23:01;17.30;99.90
3644;DHT22;1838;50.742;7.158;2023-08-08T05:25:27;17.60;99.90
3644;DHT22;1838;50.742;7.158;2023-08-08T05:27:52;18.10;99.90
3644;DHT22;1838;50.742;7.158;2023-08-08T05:30:18;18.40;99.90
3644;DHT22;1838;50.742;7.158;2023-08-08T05:32:44;18.50;99.90
3644;DHT22;1838;50.742;7.158;2023-08-08T05:35:10;18.60;99.90
3644;DHT22;1838;50.742;7.158;2023-08-08T05:37:35;19.00;99.90
3644;DHT22;1838;50.742;7.158;2023-08-08T05:40:01;19.20;99.90
3644;DHT22;1838;50.742;7.158;2023-08-08T05:42:26;19.40;99.90
3644;DHT22;1838;50.742;7.158;2023-08-08T05:44:52;19.80;99.90
3644;DHT22;1838;50.742;7.158;2023-08-08T05:47:17;20.30;99.90
3644;DHT22;1838;50.742;7.158;2023-08-08T05:49:43;20.60;99.90
3644;DHT22;1838;50.742;7.158;2023-08-08T05:52:08;20.70;99.90
3644;DHT22;1838;50.742;7.158;2023-08-08T05:54:34;20.80;99.90
3644;DHT22;1838;50.742;7.158;2023-08-08T05:57:00;20.70;99.90
3644;DHT22;1838;50.742;7.158;2023-08-08T05:59:25;20.50;99.90
3644;DHT22;1838;50.742;7.158;2023-08-08T06:01:51;20.40;99.90
3644;DHT22;1838;50.742;7.158;2023-08-08T06:04:17;20.20;99.90
3644;DHT22;1838;50.742;7.158;2023-08-08T06:06:42;20.00;99.90
3644;DHT22;1838;50.742;7.158;2023-08-08T06:09:08;19.80;99.90
3644;DHT22;1838;50.742;7.158;2023-08-08T06:11:37;19.70;99.90
3644;DHT22;1838;50.742;7.158;2023-08-08T06:14:02;19.50;99.90
3644;DHT22;1838;50.742;7.158;2023-08-08T06:16:28;19.10;99.90
3644;DHT22;1838;50.742;7.158;2023-08-08T06:18:53;19.30;99.90
3644;DHT22;1838;50.742;7.158;2023-08-08T06:21:19;19.40;99.90
3644;DHT22;1838;50.742;7.158;2023-08-08T06:23:44;19.20;99.90
3644;DHT22;1838;50.742;7.158;2023-08-08T06:26:10;19.30;99.90
3644;DHT22;1838;50.742;7.158;2023-08-08T06:28:36;19.30;99.90
3644;DHT22;1838;50.742;7.158;2023-08-08T06:31:01;19.40;99.90
3644;DHT22;1838;50.742;7.158;2023-08-08T06:33:27;19.50;99.90
3644;DHT22;1838;50.742;7.158;2023-08-08T06:35:54;19.50;99.90
3644;DHT22;1838;50.742;7.158;2023-08-08T06:38:19;19.60;99.90
3644;DHT22;1838;50.742;7.158;2023-08-08T06:40:45;19.60;99.90
3644;DHT22;1838;50.742;7.158;2023-08-08T06:43:10;19.70;99.90
3644;DHT22;1838;50.742;7.158;2023-08-08T06:45:36;19.80;99.90
3644;DHT22;1838;50.742;7.158;2023-08-08T06:48:01;19.60;99.90
3644;DHT22;1838;50.742;7.158;2023-08-08T06:50:27;19.30;99.90
3644;DHT22;1838;50.742;7.158;2023-08-08T06:52:53;19.40;99.90
3644;DHT22;1838;50.742;7.158;2023-08-08T06:55:18;19.30;99.90
3644;DHT22;1838;50.742;7.158;2023-08-08T06:57:44;19.10;99.90
3644;DHT22;1838;50.742;7.158;2023-08-08T07:00:10;19.00;99.90
3644;DHT22;1838;50.742;7.158;2023-08-08T07:02:37;19.00;99.90
3644;DHT22;1838;50.742;7.158;2023-08-08T07:05:03;19.00;99.90
3644;DHT22;1838;50.742;7.158;2023-08-08T07:07:29;19.10;99.90
3644;DHT22;1838;50.742;7.158;2023-08-08T07:09:56;19.20;99.90
3644;DHT22;1838;50.742;7.158;2023-08-08T07:12:21;19.20;99.90
3644;DHT22;1838;50.742;7.158;2023-08-08T07:14:47;19.10;99.90
3644;DHT22;1838;50.742;7.158;2023-08-08T07:17:12;19.30;99.90
3644;DHT22;1838;50.742;7.158;2023-08-08T07:19:38;19.40;99.90
3644;DHT22;1838;50.742;7.158;2023-08-08T07:22:03;19.60;99.90
3644;DHT22;1838;50.742;7.158;2023-08-08T07:24:29;19.80;99.90
3644;DHT22;1838;50.742;7.158;2023-08-08T07:26:55;20.10;99.90
3644;DHT22;1838;50.742;7.158;2023-08-08T07:29:21;20.40;99.90
3644;DHT22;1838;50.742;7.158;2023-08-08T07:31:47;21.00;99.90
3644;DHT22;1838;50.742;7.158;2023-08-08T07:34:12;21.50;99.90
3644;DHT22;1838;50.742;7.158;2023-08-08T07:36:38;22.20;99.90
3644;DHT22;1838;50.742;7.158;2023-08-08T07:39:03;22.80;99.90
3644;DHT22;1838;50.742;7.158;2023-08-08T07:41:30;23.30;99.90
3644;DHT22;1838;50.742;7.158;2023-08-08T07:43:55;23.70;99.90
3644;DHT22;1838;50.742;7.158;2023-08-08T07:46:21;24.00;99.90
3644;DHT22;1838;50.742;7.158;2023-08-08T07:48:46;24.10;99.90
3644;DHT22;1838;50.742;7.158;2023-08-08T07:51:12;24.20;99.70
3644;DHT22;1838;50.742;7.158;2023-08-08T07:53:37;24.20;98.70
3644;DHT22;1838;50.742;7.158;2023-08-08T07:56:03;24.10;98.20
3644;DHT22;1838;50.742;7.158;2023-08-08T07:58:28;24.00;97.40
3644;DHT22;1838;50.742;7.158;2023-08-08T08:00:54;23.90;97.00
3644;DHT22;1838;50.742;7.158;2023-08-08T08:03:20;23.70;98.40
3644;DHT22;1838;50.742;7.158;2023-08-08T08:05:46;23.80;98.40
3644;DHT22;1838;50.742;7.158;2023-08-08T08:08:12;23.70;99.20
3644;DHT22;1838;50.742;7.158;2023-08-08T08:10:38;23.70;98.00
3644;DHT22;1838;50.742;7.158;2023-08-08T08:13:03;23.80;97.60
3644;DHT22;1838;50.742;7.158;2023-08-08T08:15:29;23.70;97.00
3644;DHT22;1838;50.742;7.158;2023-08-08T08:17:54;23.50;96.60
3644;DHT22;1838;50.742;7.158;2023-08-08T08:20:20;23.30;97.30
3644;DHT22;1838;50.742;7.158;2023-08-08T08:22:46;23.20;98.00
3644;DHT22;1838;50.742;7.158;2023-08-08T08:25:12;23.10;97.60
3644;DHT22;1838;50.742;7.158;2023-08-08T08:27:38;23.20;97.90
3644;DHT22;1838;50.742;7.158;2023-08-08T08:30:04;23.10;96.90
3644;DHT22;1838;50.742;7.158;2023-08-08T08:32:38;23.20;97.80
3644;DHT22;1838;50.742;7.158;2023-08-08T08:35:05;23.30;97.10
3644;DHT22;1838;50.742;7.158;2023-08-08T08:37:32;23.50;97.20
3644;DHT22;1838;50.742;7.158;2023-08-08T08:39:57;23.60;96.10
3644;DHT22;1838;50.742;7.158;2023-08-08T08:42:23;23.60;96.30
3644;DHT22;1838;50.742;7.158;2023-08-08T08:44:50;23.50;96.70
3644;DHT22;1838;50.742;7.158;2023-08-08T08:47:20;23.50;97.50
3644;DHT22;1838;50.742;7.158;2023-08-08T08:49:45;23.50;97.70
3644;DHT22;1838;50.742;7.158;2023-08-08T08:52:11;23.50;97.00
3644;DHT22;1838;50.742;7.158;2023-08-08T08:54:37;23.50;97.30
3644;DHT22;1838;50.742;7.158;2023-08-08T08:57:04;23.50;98.00
3644;DHT22;1838;50.742;7.158;2023-08-08T08:59:29;23.70;98.30
3644;DHT22;1838;50.742;7.158;2023-08-08T09:01:56;23.90;97.60
3644;DHT22;1838;50.742;7.158;2023-08-08T09:04:22;24.00;97.30
3644;DHT22;1838;50.742;7.158;2023-08-08T09:06:52;24.00;95.90
3644;DHT22;1838;50.742;7.158;2023-08-08T09:09:17;24.00;97.40
3644;DHT22;1838;50.742;7.158;2023-08-08T09:11:48;24.20;97.30
3644;DHT22;1838;50.742;7.158;2023-08-08T09:14:24;24.30;96.60
3644;DHT22;1838;50.742;7.158;2023-08-08T09:16:51;24.40;96.20
3644;DHT22;1838;50.742;7.158;2023-08-08T09:19:19;24.40;95.70
3644;DHT22;1838;50.742;7.158;2023-08-08T09:21:46;24.40;95.10
3644;DHT22;1838;50.742;7.158;2023-08-08T09:24:12;24.40;95.20
3644;DHT22;1838;50.742;7.158;2023-08-08T09:26:39;24.30;95.50
3644;DHT22;1838;50.742;7.158;2023-08-08T09:29:04;24.40;95.60
3644;DHT22;1838;50.742;7.158;2023-08-08T09:31:31;24.30;95.30
3644;DHT22;1838;50.742;7.158;2023-08-08T09:33:58;24.40;96.10
3644;DHT22;1838;50.742;7.158;2023-08-08T09:36:24;24.60;95.70
3644;DHT22;1838;50.742;7.158;2023-08-08T09:38:51;24.60;93.50
3644;DHT22;1838;50.742;7.158;2023-08-08T09:41:16;24.50;94.00
3644;DHT22;1838;50.742;7.158;2023-08-08T09:43:45;24.50;93.20
3644;DHT22;1838;50.742;7.158;2023-08-08T09:46:10;24.50;92.30
3644;DHT22;1838;50.742;7.158;2023-08-08T09:48:38;24.40;91.60
3644;DHT22;1838;50.742;7.158;2023-08-08T09:51:04;24.30;91.80
3644;DHT22;1838;50.742;7.158;2023-08-08T09:53:30;24.20;91.60
3644;DHT22;1838;50.742;7.158;2023-08-08T09:55:56;24.10;91.60
3644;DHT22;1838;50.742;7.158;2023-08-08T09:58:23;24.00;91.00
3644;DHT22;1838;50.742;7.158;2023-08-08T10:00:49;23.90;91.40
3644;DHT22;1838;50.742;7.158;2023-08-08T10:03:16;23.80;91.60
3644;DHT22;1838;50.742;7.158;2023-08-08T10:05:43;23.70;91.60
3644;DHT22;1838;50.742;7.158;2023-08-08T10:08:08;23.70;92.10
3644;DHT22;1838;50.742;7.158;2023-08-08T10:10:34;23.60;92.30
3644;DHT22;1838;50.742;7.158;2023-08-08T10:13:01;23.60;93.00
3644;DHT22;1838;50.742;7.158;2023-08-08T10:15:27;23.60;92.60
3644;DHT22;1838;50.742;7.158;2023-08-08T10:17:56;23.60;92.90
3644;DHT22;1838;50.742;7.158;2023-08-08T10:20:24;23.70;92.80
3644;DHT22;1838;50.742;7.158;2023-08-08T10:22:52;23.70;91.30
3644;DHT22;1838;50.742;7.158;2023-08-08T10:25:26;23.70;90.80
3644;DHT22;1838;50.742;7.158;2023-08-08T10:28:08;23.60;90.90
3644;DHT22;1838;50.742;7.158;2023-08-08T10:36:00;23.80;90.90
3644;DHT22;1838;50.742;7.158;2023-08-08T10:38:27;23.80;90.70
3644;DHT22;1838;50.742;7.158;2023-08-08T10:40:59;23.90;90.60
3644;DHT22;1838;50.742;7.158;2023-08-08T10:43:34;24.00;89.20
3644;DHT22;1838;50.742;7.158;2023-08-08T10:46:03;24.10;90.20
3644;DHT22;1838;50.742;7.158;2023-08-08T10:48:29;24.20;90.50
3644;DHT22;1838;50.742;7.158;2023-08-08T10:50:57;24.20;89.70
3644;DHT22;1838;50.742;7.158;2023-08-08T10:53:26;24.30;88.80
3644;DHT22;1838;50.742;7.158;2023-08-08T10:56:03;24.20;88.20
3644;DHT22;1838;50.742;7.158;2023-08-08T10:58:37;24.30;88.50
3644;DHT22;1838;50.742;7.158;2023-08-08T11:01:03;24.30;88.30
3644;DHT22;1838;50.742;7.158;2023-08-08T11:03:39;24.30;89.70
3644;DHT22;1838;50.742;7.158;2023-08-08T11:06:10;24.40;89.70
3644;DHT22;1838;50.742;7.158;2023-08-08T11:08:37;24.40;89.20
3644;DHT22;1838;50.742;7.158;2023-08-08T11:11:04;24.40;88.80
3644;DHT22;1838;50.742;7.158;2023-08-08T11:13:30;24.50;87.50
3644;DHT22;1838;50.742;7.158;2023-08-08T11:15:56;24.40;88.10
3644;DHT22;1838;50.742;7.158;2023-08-08T11:18:22;24.50;87.90
3644;DHT22;1838;50.742;7.158;2023-08-08T11:20:49;24.40;87.60
3644;DHT22;1838;50.742;7.158;2023-08-08T11:23:14;24.40;86.40
3644;DHT22;1838;50.742;7.158;2023-08-08T11:25:41;24.50;87.00
3644;DHT22;1838;50.742;7.158;2023-08-08T11:28:08;24.50;86.40
3644;DHT22;1838;50.742;7.158;2023-08-08T11:30:36;24.60;87.00
3644;DHT22;1838;50.742;7.158;2023-08-08T11:33:02;24.60;84.30
3644;DHT22;1838;50.742;7.158;2023-08-08T11:35:29;24.50;82.60
3644;DHT22;1838;50.742;7.158;2023-08-08T11:37:56;24.40;84.30
3644;DHT22;1838;50.742;7.158;2023-08-08T11:40:23;24.40;83.50
3644;DHT22;1838;50.742;7.158;2023-08-08T11:42:50;24.40;86.60
3644;DHT22;1838;50.742;7.158;2023-08-08T11:45:16;24.30;86.50
3644;DHT22;1838;50.742;7.158;2023-08-08T11:47:42;24.20;86.20
3644;DHT22;1838;50.742;7.158;2023-08-08T11:50:09;24.10;86.60
3644;DHT22;1838;50.742;7.158;2023-08-08T11:52:40;23.90;86.80
3644;DHT22;1838;50.742;7.158;2023-08-08T11:55:07;23.80;87.50
3644;DHT22;1838;50.742;7.158;2023-08-08T11:57:35;23.70;90.10
3644;DHT22;1838;50.742;7.158;2023-08-08T12:00:02;23.70;90.30
3644;DHT22;1838;50.742;7.158;2023-08-08T12:02:28;23.70;91.00
3644;DHT22;1838;50.742;7.158;2023-08-08T12:04:53;23.70;90.20
3644;DHT22;1838;50.742;7.158;2023-08-08T12:07:19;23.60;90.70
3644;DHT22;1838;50.742;7.158;2023-08-08T12:09:47;23.60;90.10
3644;DHT22;1838;50.742;7.158;2023-08-08T12:12:13;23.50;89.40
3644;DHT22;1838;50.742;7.158;2023-08-08T12:14:39;23.50;89.70
3644;DHT22;1838;50.742;7.158;2023-08-08T12:17:05;23.60;90.00
3644;DHT22;1838;50.742;7.158;2023-08-08T12:19:31;23.60;89.90
3644;DHT22;1838;50.742;7.158;2023-08-08T12:21:57;23.50;90.00
3644;DHT22;1838;50.742;7.158;2023-08-08T12:24:22;23.50;90.50
3644;DHT22;1838;50.742;7.158;2023-08-08T12:26:48;23.50;90.20
3644;DHT22;1838;50.742;7.158;2023-08-08T12:29:13;23.40;91.00
3644;DHT22;1838;50.742;7.158;2023-08-08T12:31:39;23.40;92.00
3644;DHT22;1838;50.742;7.158;2023-08-08T12:34:05;23.30;92.90
3644;DHT22;1838;50.742;7.158;2023-08-08T12:36:31;23.10;93.30
3644;DHT22;1838;50.742;7.158;2023-08-08T12:38:56;23.10;94.00
3644;DHT22;1838;50.742;7.158;2023-08-08T12:41:25;23.20;95.20
3644;DHT22;1838;50.742;7.158;2023-08-08T12:43:51;23.30;95.40
3644;DHT22;1838;50.742;7.158;2023-08-08T12:46:16;23.40;95.60
3644;DHT22;1838;50.742;7.158;2023-08-08T12:48:42;23.60;94.10
3644;DHT22;1838;50.742;7.158;2023-08-08T12:51:09;23.70;94.40
3644;DHT22;1838;50.742;7.158;2023-08-08T12:53:35;23.70;94.30
3644;DHT22;1838;50.742;7.158;2023-08-08T12:56:00;23.80;94.30
3644;DHT22;1838;50.742;7.158;2023-08-08T12:58:26;23.80;94.60
3644;DHT22;1838;50.742;7.158;2023-08-08T13:00:52;23.90;93.80
3644;DHT22;1838;50.742;7.158;2023-08-08T13:03:17;23.90;93.50
3644;DHT22;1838;50.742;7.158;2023-08-08T13:05:43;23.70;93.50
3644;DHT22;1838;50.742;7.158;2023-08-08T13:08:08;23.50;93.60
3644;DHT22;1838;50.742;7.158;2023-08-08T13:10:35;23.50;94.40
3644;DHT22;1838;50.742;7.158;2023-08-08T13:13:01;23.30;94.60
3644;DHT22;1838;50.742;7.158;2023-08-08T13:15:26;23.00;94.90
3644;DHT22;1838;50.742;7.158;2023-08-08T13:17:52;22.90;95.50
3644;DHT22;1838;50.742;7.158;2023-08-08T13:20:17;22.80;96.10
3644;DHT22;1838;50.742;7.158;2023-08-08T13:22:43;22.70;96.60
3644;DHT22;1838;50.742;7.158;2023-08-08T13:25:09;22.60;97.90
3644;DHT22;1838;50.742;7.158;2023-08-08T13:27:35;22.50;98.10
3644;DHT22;1838;50.742;7.158;2023-08-08T13:30:01;22.50;98.70
3644;DHT22;1838;50.742;7.158;2023-08-08T13:32:27;22.50;98.90
3644;DHT22;1838;50.742;7.158;2023-08-08T13:34:52;22.40;98.60
3644;DHT22;1838;50.742;7.158;2023-08-08T13:37:18;22.40;99.00
3644;DHT22;1838;50.742;7.158;2023-08-08T13:39:43;22.30;99.40
3644;DHT22;1838;50.742;7.158;2023-08-08T13:42:09;22.40;99.80
3644;DHT22;1838;50.742;7.158;2023-08-08T13:44:35;22.30;99.90
3644;DHT22;1838;50.742;7.158;2023-08-08T13:47:00;22.30;99.80
3644;DHT22;1838;50.742;7.158;2023-08-08T13:49:26;22.30;99.90
3644;DHT22;1838;50.742;7.158;2023-08-08T13:51:53;22.30;99.90
3644;DHT22;1838;50.742;7.158;2023-08-08T13:54:19;22.30;99.90
3644;DHT22;1838;50.742;7.158;2023-08-08T13:56:44;22.30;99.90
3644;DHT22;1838;50.742;7.158;2023-08-08T13:59:10;22.40;99.90
3644;DHT22;1838;50.742;7.158;2023-08-08T14:01:35;22.40;99.90
3644;DHT22;1838;50.742;7.158;2023-08-08T14:04:01;22.30;99.90
3644;DHT22;1838;50.742;7.158;2023-08-08T14:06:27;22.30;99.90
3644;DHT22;1838;50.742;7.158;2023-08-08T14:08:52;22.20;99.90
3644;DHT22;1838;50.742;7.158;2023-08-08T14:11:18;22.10;99.90
3644;DHT22;1838;50.742;7.158;2023-08-08T14:13:43;21.90;99.90
3644;DHT22;1838;50.742;7.158;2023-08-08T14:16:09;21.80;99.90
3644;DHT22;1838;50.742;7.158;2023-08-08T14:18:35;21.70;99.90
3644;DHT22;1838;50.742;7.158;2023-08-08T14:21:00;21.60;99.90
3644;DHT22;1838;50.742;7.158;2023-08-08T14:23:28;21.50;99.90
3644;DHT22;1838;50.742;7.158;2023-08-08T14:25:53;21.60;99.90
3644;DHT22;1838;50.742;7.158;2023-08-08T14:28:20;21.70;99.90
3644;DHT22;1838;50.742;7.158;2023-08-08T14:30:45;21.80;99.90
3644;DHT22;1838;50.742;7.158;2023-08-08T14:33:15;21.90;99.90
3644;DHT22;1838;50.742;7.158;2023-08-08T14:35:41;22.00;99.90
3644;DHT22;1838;50.742;7.158;2023-08-08T14:38:07;21.90;99.90
3644;DHT22;1838;50.742;7.158;2023-08-08T14:40:33;21.80;99.90
3644;DHT22;1838;50.742;7.158;2023-08-08T14:43:00;21.70;99.90
3644;DHT22;1838;50.742;7.158;2023-08-08T14:45:26;21.70;99.90
3644;DHT22;1838;50.742;7.158;2023-08-08T14:47:52;21.60;99.90
3644;DHT22;1838;50.742;7.158;2023-08-08T14:50:17;21.50;99.90
3644;DHT22;1838;50.742;7.158;2023-08-08T14:52:43;21.40;99.90
3644;DHT22;1838;50.742;7.158;2023-08-08T14:55:08;21.30;99.90
3644;DHT22;1838;50.742;7.158;2023-08-08T14:57:34;21.30;99.90
3644;DHT22;1838;50.742;7.158;2023-08-08T14:59:59;21.20;99.90
3644;DHT22;1838;50.742;7.158;2023-08-08T15:02:29;21.30;99.90
3644;DHT22;1838;50.742;7.158;2023-08-08T15:04:54;21.40;99.90
3644;DHT22;1838;50.742;7.158;2023-08-08T15:07:20;21.40;99.90
3644;DHT22;1838;50.742;7.158;2023-08-08T15:09:46;21.50;99.90
3644;DHT22;1838;50.742;7.158;2023-08-08T15:12:17;21.70;99.90
3644;DHT22;1838;50.742;7.158;2023-08-08T15:14:42;21.70;99.90
3644;DHT22;1838;50.742;7.158;2023-08-08T15:17:08;21.80;99.90
3644;DHT22;1838;50.742;7.158;2023-08-08T15:19:34;21.80;99.90
3644;DHT22;1838;50.742;7.158;2023-08-08T15:21:59;21.80;99.90
3644;DHT22;1838;50.742;7.158;2023-08-08T15:24:25;21.70;99.90
3644;DHT22;1838;50.742;7.158;2023-08-08T15:26:51;21.70;99.90
3644;DHT22;1838;50.742;7.158;2023-08-08T15:29:17;21.70;99.90
3644;DHT22;1838;50.742;7.158;2023-08-08T15:31:42;21.70;99.90
3644;DHT22;1838;50.742;7.158;2023-08-08T15:34:08;21.70;99.90
3644;DHT22;1838;50.742;7.158;2023-08-08T15:36:33;21.80;99.90
3644;DHT22;1838;50.742;7.158;2023-08-08T15:38:59;21.80;99.90
3644;DHT22;1838;50.742;7.158;2023-08-08T15:41:24;21.90;99.90
3644;DHT22;1838;50.742;7.158;2023-08-08T15:43:50;21.90;99.90
3644;DHT22;1838;50.742;7.158;2023-08-08T15:46:16;22.00;99.90
3644;DHT22;1838;50.742;7.158;2023-08-08T15:48:41;22.10;99.90
3644;DHT22;1838;50.742;7.158;2023-08-08T15:51:06;22.30;99.90
3644;DHT22;1838;50.742;7.158;2023-08-08T15:53:32;22.40;99.90
3644;DHT22;1838;50.742;7.158;2023-08-08T15:55:59;22.60;99.90
3644;DHT22;1838;50.742;7.158;2023-08-08T15:58:24;22.70;99.90
3644;DHT22;1838;50.742;7.158;2023-08-08T16:00:50;22.70;99.90